메인 페이지
METAR-TAF:

METAR-TAF

공항 :

브루나이 국제공항

브루나이, 브루나이

위도: 04-56N, 경도: 114-56E, 고도: 22m

현재 날씨관측

예보는 35분 전, 04:30시(UTC)에 발표되었습니다.
남서6kt
온도 30°C
습도 75%
기압 1010 hPa
시정 10km 이상
고도 1600ft 상공 구름 보통
고도 1700ft 상공 구름 조금, 적란운.
고도 14000ft 상공 구름 많음

METAR: WBSB 150430Z 22006KT 9999 SCT016 FEW017CB BKN140 30/25 Q1010 NOSIG

시각: 13:05 (05:05 UTC)

예보

예보는 6 시간 5분 전, 23:00시(UTC)에 발표되었습니다.
예보 대상 시간: 15일 00시부터 16일 06시까지 (UTC)
남남서5kt
시정 10km 이상
고도 400ft 상공 구름 조금
고도 1400ft 상공 구름 보통
고도 1500ft 상공 구름 조금, 적란운.
일시적
15일 00시부터 15일 02시까지 (UTC)
시정: 7000m
소나기, 뇌우, 비
전환 중
15일 01시부터 15일 03시까지 (UTC)
12kt
고도 1500ft 상공 구름 보통
고도 1600ft 상공 구름 조금, 적란운.

TAF: WBSB 142300Z 1500/1606 20005KT 9999 FEW004 SCT014 FEW015CB TEMPO 1500/1502 7000 SHRA TSRA BECMG 1501/1503 26012KT SCT015 FEW016CB

4,000개 이상의 공항 관측 자료 및 예보 (METAR 및 TAF 보고).

지도상에서 검색 가능한 기상관측소가 노란 점과 빨간 점으로 표시되어 있습니다.

기상관측소 명을 보려면 표시 위로 마우스를 이동하세요.

날씨 관측과 예보를 보려면 클릭하세요.

지도 변경 : 확대하려면 엑스 표시가 있는 녹색 버튼, 축소하려면 빼기 표시가 있는 녹색 버튼, 다음 페이지의 지도를 보려면 녹색 화살표를 클릭하세요.


METAR-TAF: